Time;durP1;ratioP1;P1;durP2;ratioP2;P2;SDS_P1;SDS_P2;PMS_P1;PMS_P2;Temp;Humidity;BMP_temperature;BMP_pressure;BME280_temperature;BME280_humidity;BME280_pressure;Samples;Min_cycle;Max_cycle;Signal;HPM_P1;HPM_P2
2024/01/01 00:00:03;;;;;;;;;16.50;16.00;;;;;;;;109894;1253;18150;-31
2024/01/01 00:02:31;;;;;;;;;19.50;16.50;;;;;;;;109958;1261;17595;-31
2024/01/01 00:04:59;;;;;;;;;17.00;16.00;;;;;;;;109950;1266;19231;-31
2024/01/01 00:07:27;;;;;;;;;17.00;17.00;;;;;;;;109936;1260;20355;-31
2024/01/01 00:09:54;;;;;;;;;16.00;14.00;;;;;;;;109947;1252;18497;-31
2024/01/01 00:12:21;;;;;;;;;17.00;16.00;;;;;;;;109941;1251;19562;-31
2024/01/01 00:14:49;;;;;;;;;20.00;19.00;;;;;;;;109931;1251;18112;-31
2024/01/01 00:17:16;;;;;;;;;16.00;16.00;;;;;;;;109936;1266;21739;-31
2024/01/01 00:19:43;;;;;;;;;20.00;19.00;;;;;;;;109929;1260;18876;-31
2024/01/01 00:22:11;;;;;;;;;20.00;17.00;;;;;;;;109969;1266;17510;-31
2024/01/01 00:24:38;;;;;;;;;16.50;16.50;;;;;;;;109985;1259;19592;-30
2024/01/01 00:27:05;;;;;;;;;14.00;14.00;;;;;;;;109995;1253;18860;-31
2024/01/01 00:29:32;;;;;;;;;17.00;16.00;;;;;;;;109949;1266;17488;-30
2024/01/01 00:32:00;;;;;;;;;17.00;16.50;;;;;;;;109946;1260;19539;-31
2024/01/01 00:34:27;;;;;;;;;17.00;14.00;;;;;;;;109975;1263;20236;-31
2024/01/01 00:36:54;;;;;;;;;17.50;16.00;;;;;;;;109969;1253;18265;-31
2024/01/01 00:39:22;;;;;;;;;19.00;16.00;;;;;;;;109908;1268;19036;-31
2024/01/01 00:41:49;;;;;;;;;17.00;16.00;;;;;;;;109906;1253;18863;-39
2024/01/01 00:44:16;;;;;;;;;17.00;14.00;;;;;;;;109947;1253;17467;-31
2024/01/01 00:46:44;;;;;;;;;14.00;13.50;;;;;;;;109938;1268;17419;-30
2024/01/01 00:49:11;;;;;;;;;17.00;17.00;;;;;;;;109983;1253;18628;-31
2024/01/01 00:51:38;;;;;;;;;21.00;16.50;;;;;;;;109940;1254;18078;-31
2024/01/01 00:54:06;;;;;;;;;19.00;16.00;;;;;;;;109931;1253;19107;-31
2024/01/01 00:56:33;;;;;;;;;16.00;15.00;;;;;;;;109905;1268;18941;-31
2024/01/01 00:59:00;;;;;;;;;16.00;14.00;;;;;;;;109907;1252;19162;-31
2024/01/01 01:01:27;;;;;;;;;20.00;17.00;;;;;;;;109905;1263;21029;-31
2024/01/01 01:03:55;;;;;;;;;20.00;18.00;;;;;;;;109919;1252;18851;-31
2024/01/01 01:06:22;;;;;;;;;18.00;16.00;;;;;;;;109914;1252;20574;-31
2024/01/01 01:08:49;;;;;;;;;20.00;16.00;;;;;;;;109922;1267;18279;-31
2024/01/01 01:11:17;;;;;;;;;14.00;14.00;;;;;;;;109948;1268;17491;-30
2024/01/01 01:13:44;;;;;;;;;19.00;17.00;;;;;;;;110004;1253;17540;-30
2024/01/01 01:16:11;;;;;;;;;17.00;17.00;;;;;;;;109949;1260;22109;-30
2024/01/01 01:18:39;;;;;;;;;20.00;17.00;;;;;;;;109927;1263;18877;-31
2024/01/01 01:21:06;;;;;;;;;16.00;14.00;;;;;;;;109872;1253;18563;-30
2024/01/01 01:23:34;;;;;;;;;17.00;16.00;;;;;;;;109789;1268;18382;-30
2024/01/01 01:26:01;;;;;;;;;17.00;17.00;;;;;;;;109865;1268;18647;-30
2024/01/01 01:28:28;;;;;;;;;14.00;14.00;;;;;;;;109857;1263;18375;-31
2024/01/01 01:30:55;;;;;;;;;16.50;16.00;;;;;;;;109850;1253;21998;-30
2024/01/01 01:33:23;;;;;;;;;16.00;16.00;;;;;;;;109940;1260;19850;-31
2024/01/01 01:35:50;;;;;;;;;14.67;13.00;;;;;;;;109916;1253;18175;-30
2024/01/01 01:38:17;;;;;;;;;16.00;16.00;;;;;;;;109943;1253;19103;-30
2024/01/01 01:40:45;;;;;;;;;20.00;17.00;;;;;;;;109906;1268;17502;-30
2024/01/01 01:43:12;;;;;;;;;16.00;16.00;;;;;;;;109882;1252;19407;-30
2024/01/01 01:45:39;;;;;;;;;19.00;18.00;;;;;;;;109876;1252;18429;-30
2024/01/01 01:48:07;;;;;;;;;18.00;16.00;;;;;;;;109888;1263;21442;-31
2024/01/01 01:50:34;;;;;;;;;17.00;17.00;;;;;;;;109885;1253;18306;-31
2024/01/01 01:53:01;;;;;;;;;21.33;19.00;;;;;;;;109902;1253;18490;-30
2024/01/01 01:55:29;;;;;;;;;17.00;16.50;;;;;;;;109919;1264;20638;-31
2024/01/01 01:57:56;;;;;;;;;15.50;15.00;;;;;;;;109902;1253;19688;-30
2024/01/01 02:00:23;;;;;;;;;19.00;17.00;;;;;;;;109902;1252;18424;-31
2024/01/01 02:02:51;;;;;;;;;18.00;15.00;;;;;;;;109895;1268;20833;-30
2024/01/01 02:05:18;;;;;;;;;16.00;15.00;;;;;;;;109908;1252;18136;-30
2024/01/01 02:07:46;;;;;;;;;24.00;19.00;;;;;;;;109914;1263;19395;-31
2024/01/01 02:10:13;;;;;;;;;17.00;16.00;;;;;;;;109921;1268;18966;-30
2024/01/01 02:12:40;;;;;;;;;16.00;14.00;;;;;;;;109892;1268;21920;-30
2024/01/01 02:15:08;;;;;;;;;16.00;13.50;;;;;;;;109898;1268;17440;-30
2024/01/01 02:17:35;;;;;;;;;17.00;16.00;;;;;;;;109916;1268;17651;-31
2024/01/01 02:20:03;;;;;;;;;17.00;17.00;;;;;;;;109952;1253;18200;-30
2024/01/01 02:22:30;;;;;;;;;16.00;14.00;;;;;;;;109956;1268;20087;-30
2024/01/01 02:24:58;;;;;;;;;17.00;15.33;;;;;;;;109921;1268;19086;-31
2024/01/01 02:27:25;;;;;;;;;19.00;17.00;;;;;;;;109940;1253;18153;-31
2024/01/01 02:29:52;;;;;;;;;18.00;17.00;;;;;;;;109946;1253;18472;-31
2024/01/01 02:32:20;;;;;;;;;13.50;13.50;;;;;;;;109924;1260;19034;-30
2024/01/01 02:34:47;;;;;;;;;16.00;14.00;;;;;;;;109973;1253;18159;-31
2024/01/01 02:37:14;;;;;;;;;14.00;13.00;;;;;;;;109991;1253;19098;-31
2024/01/01 02:39:41;;;;;;;;;15.00;15.00;;;;;;;;109962;1253;18831;-31
2024/01/01 02:42:09;;;;;;;;;16.00;16.00;;;;;;;;109961;1268;21957;-30
2024/01/01 02:44:36;;;;;;;;;19.00;17.00;;;;;;;;109966;1253;19238;-30
2024/01/01 02:47:03;;;;;;;;;16.00;14.00;;;;;;;;109957;1253;18858;-31
2024/01/01 02:49:31;;;;;;;;;16.00;14.00;;;;;;;;109941;1261;19389;-31
2024/01/01 02:51:58;;;;;;;;;14.00;11.00;;;;;;;;109973;1268;17651;-31
2024/01/01 02:54:25;;;;;;;;;16.00;14.00;;;;;;;;109937;1253;18881;-30
2024/01/01 02:56:53;;;;;;;;;14.00;14.00;;;;;;;;109905;1260;18131;-31
2024/01/01 02:59:20;;;;;;;;;15.33;14.67;;;;;;;;109901;1253;19401;-31
2024/01/01 03:01:47;;;;;;;;;14.00;14.00;;;;;;;;109929;1268;17951;-31
2024/01/01 03:04:14;;;;;;;;;13.50;13.00;;;;;;;;109905;1253;18351;-31
2024/01/01 03:06:42;;;;;;;;;14.00;14.00;;;;;;;;109922;1253;19228;-30
2024/01/01 03:09:09;;;;;;;;;13.00;13.00;;;;;;;;109967;1253;18854;-31
2024/01/01 03:11:36;;;;;;;;;13.00;13.00;;;;;;;;109934;1253;18114;-29
2024/01/01 03:14:04;;;;;;;;;16.00;12.00;;;;;;;;109955;1253;18441;-30
2024/01/01 03:16:31;;;;;;;;;11.00;10.50;;;;;;;;109930;1263;18984;-30
2024/01/01 03:18:58;;;;;;;;;11.00;11.00;;;;;;;;109967;1253;18171;-30
2024/01/01 03:21:26;;;;;;;;;14.67;14.00;;;;;;;;109948;1268;18033;-30
2024/01/01 03:23:53;;;;;;;;;11.00;11.00;;;;;;;;109933;1268;17695;-30
2024/01/01 03:26:22;;;;;;;;;14.00;13.00;;;;;;;;109905;1252;23266;-30
2024/01/01 03:28:49;;;;;;;;;15.50;12.00;;;;;;;;109903;1252;20335;-30
2024/01/01 03:31:17;;;;;;;;;11.00;11.00;;;;;;;;109863;1266;17470;-30
2024/01/01 03:33:45;;;;;;;;;16.00;14.00;;;;;;;;109929;1267;17552;-30
2024/01/01 03:36:13;;;;;;;;;16.00;14.00;;;;;;;;109883;1268;17406;-30
2024/01/01 03:38:40;;;;;;;;;14.00;13.00;;;;;;;;109893;1252;19224;-30
2024/01/01 03:41:08;;;;;;;;;14.50;10.50;;;;;;;;109903;1268;17299;-30
2024/01/01 03:43:35;;;;;;;;;11.00;11.00;;;;;;;;109883;1268;17411;-30
2024/01/01 03:46:03;;;;;;;;;14.50;13.00;;;;;;;;109894;1261;18670;-30
2024/01/01 03:48:30;;;;;;;;;16.50;16.50;;;;;;;;109904;1268;19772;-30
2024/01/01 03:50:57;;;;;;;;;14.00;13.00;;;;;;;;109932;1253;18502;-30
2024/01/01 03:53:25;;;;;;;;;16.00;13.00;;;;;;;;109914;1268;21075;-30
2024/01/01 03:55:52;;;;;;;;;16.00;14.00;;;;;;;;109907;1254;18191;-30
2024/01/01 03:58:19;;;;;;;;;13.00;12.00;;;;;;;;109897;1254;18496;-31
2024/01/01 04:00:47;;;;;;;;;;;;;;;;;;109895;1253;20511;-30
2024/01/01 04:03:14;;;;;;;;;11.00;10.00;;;;;;;;109867;1268;18084;-30
2024/01/01 04:05:42;;;;;;;;;14.00;13.00;;;;;;;;109931;1268;18397;-30
2024/01/01 04:08:09;;;;;;;;;11.00;10.67;;;;;;;;109952;1253;18905;-30
2024/01/01 04:10:36;;;;;;;;;10.67;9.33;;;;;;;;109911;1253;18367;-30
2024/01/01 04:13:04;;;;;;;;;10.00;10.00;;;;;;;;109901;1254;18461;-30
2024/01/01 04:15:31;;;;;;;;;11.00;10.00;;;;;;;;109950;1268;20635;-30
2024/01/01 04:17:58;;;;;;;;;13.50;13.00;;;;;;;;109934;1253;17790;-30
2024/01/01 04:20:26;;;;;;;;;10.50;10.00;;;;;;;;109906;1252;20811;-30
2024/01/01 04:22:53;;;;;;;;;13.50;10.00;;;;;;;;109958;1252;18868;-30
2024/01/01 04:25:20;;;;;;;;;11.00;11.00;;;;;;;;109590;1253;394774;-30
2024/01/01 04:27:48;;;;;;;;;13.00;11.00;;;;;;;;109931;1267;17410;-31
2024/01/01 04:30:15;;;;;;;;;8.00;8.00;;;;;;;;109913;1267;21528;-30
2024/01/01 04:32:42;;;;;;;;;11.00;11.00;;;;;;;;109952;1266;17435;-30
2024/01/01 04:35:10;;;;;;;;;10.50;10.00;;;;;;;;109921;1254;18424;-30
2024/01/01 04:37:37;;;;;;;;;16.50;15.00;;;;;;;;109968;1260;18820;-30
2024/01/01 04:40:05;;;;;;;;;10.50;8.00;;;;;;;;109939;1266;18338;-30
2024/01/01 04:42:32;;;;;;;;;13.00;9.00;;;;;;;;109953;1266;20084;-30
2024/01/01 04:44:59;;;;;;;;;9.50;8.00;;;;;;;;109925;1260;19072;-30
2024/01/01 04:47:27;;;;;;;;;13.00;10.50;;;;;;;;109966;1253;18125;-30
2024/01/01 04:49:54;;;;;;;;;11.00;10.00;;;;;;;;109949;1254;18460;-30
2024/01/01 04:52:21;;;;;;;;;8.00;8.00;;;;;;;;109972;1250;17535;-30
2024/01/01 04:54:49;;;;;;;;;13.00;13.00;;;;;;;;109997;1253;18184;-30
2024/01/01 04:57:16;;;;;;;;;10.00;10.00;;;;;;;;109955;1250;19206;-30
2024/01/01 04:59:43;;;;;;;;;8.00;8.00;;;;;;;;109974;1250;18970;-30
2024/01/01 05:02:11;;;;;;;;;9.00;8.00;;;;;;;;109942;1250;20998;-30
2024/01/01 05:04:38;;;;;;;;;10.00;10.00;;;;;;;;109936;1260;19162;-30
2024/01/01 05:07:06;;;;;;;;;11.00;8.00;;;;;;;;109960;1252;18796;-30
2024/01/01 05:09:33;;;;;;;;;10.33;8.00;;;;;;;;109938;1266;19738;-31
2024/01/01 05:12:01;;;;;;;;;10.50;10.00;;;;;;;;109908;1266;19067;-31
2024/01/01 05:14:28;;;;;;;;;14.00;10.00;;;;;;;;109916;1250;21442;-31
2024/01/01 05:16:55;;;;;;;;;10.00;8.00;;;;;;;;109951;1250;18038;-30
2024/01/01 05:19:23;;;;;;;;;10.00;10.00;;;;;;;;109912;1266;21732;-30
2024/01/01 05:21:50;;;;;;;;;10.00;10.00;;;;;;;;109888;1266;17445;-30
2024/01/01 05:24:17;;;;;;;;;8.00;8.00;;;;;;;;109843;1250;22132;-31
2024/01/01 05:26:44;;;;;;;;;8.00;8.00;;;;;;;;109874;1254;19042;-30
2024/01/01 05:29:12;;;;;;;;;11.00;8.00;;;;;;;;109899;1253;18898;-30
2024/01/01 05:31:39;;;;;;;;;10.00;10.00;;;;;;;;109865;1250;20315;-30
2024/01/01 05:34:06;;;;;;;;;7.50;7.50;;;;;;;;109841;1266;17408;-30
2024/01/01 05:36:34;;;;;;;;;11.00;11.00;;;;;;;;109885;1266;20521;-31
2024/01/01 05:39:01;;;;;;;;;11.00;10.00;;;;;;;;109968;1250;19996;-30
2024/01/01 05:41:29;;;;;;;;;10.00;10.00;;;;;;;;109956;1260;18356;-30
2024/01/01 05:43:56;;;;;;;;;7.67;7.67;;;;;;;;109933;1266;17381;-30
2024/01/01 05:46:23;;;;;;;;;7.50;7.50;;;;;;;;109975;1266;17348;-30
2024/01/01 05:48:51;;;;;;;;;8.00;8.00;;;;;;;;109974;1266;17843;-30
2024/01/01 05:51:18;;;;;;;;;11.00;9.00;;;;;;;;109992;1250;17631;-31
2024/01/01 05:53:46;;;;;;;;;13.00;10.00;;;;;;;;109970;1254;21599;-30
2024/01/01 05:56:13;;;;;;;;;10.00;8.00;;;;;;;;109965;1254;18414;-31
2024/01/01 05:58:40;;;;;;;;;11.00;11.00;;;;;;;;109957;1253;19987;-31
2024/01/01 06:01:09;;;;;;;;;7.67;7.67;;;;;;;;109942;1250;17639;-31
2024/01/01 06:03:36;;;;;;;;;8.00;7.00;;;;;;;;110006;1260;19784;-30
2024/01/01 06:06:03;;;;;;;;;10.00;10.00;;;;;;;;109975;1266;22197;-30
2024/01/01 06:08:33;;;;;;;;;8.00;7.00;;;;;;;;110008;1266;20334;-30
2024/01/01 06:11:00;;;;;;;;;10.00;10.00;;;;;;;;110100;1251;18114;-31
2024/01/01 06:13:28;;;;;;;;;10.50;8.00;;;;;;;;109973;1266;19023;-30
2024/01/01 06:15:55;;;;;;;;;8.00;8.00;;;;;;;;110005;1254;18116;-31
2024/01/01 06:18:25;;;;;;;;;14.00;13.00;;;;;;;;109966;1252;18428;-31
2024/01/01 06:20:52;;;;;;;;;10.00;7.00;;;;;;;;109977;1253;18899;-30
2024/01/01 06:23:19;;;;;;;;;7.00;7.00;;;;;;;;109948;1255;18192;-30
2024/01/01 06:25:47;;;;;;;;;8.00;8.00;;;;;;;;109985;1266;17300;-30
2024/01/01 06:28:14;;;;;;;;;9.50;9.00;;;;;;;;109923;1254;18897;-31
2024/01/01 06:30:41;;;;;;;;;11.00;11.00;;;;;;;;109959;1252;19199;-30
2024/01/01 06:33:09;;;;;;;;;10.00;9.00;;;;;;;;109938;1253;19697;-31
2024/01/01 06:35:36;;;;;;;;;7.50;7.00;;;;;;;;109959;1266;19285;-31
2024/01/01 06:38:03;;;;;;;;;11.00;10.00;;;;;;;;109966;1254;18152;-30
2024/01/01 06:40:31;;;;;;;;;9.33;9.33;;;;;;;;109946;1260;21798;-31
2024/01/01 06:42:58;;;;;;;;;7.50;7.00;;;;;;;;109997;1250;18822;-31
2024/01/01 06:45:26;;;;;;;;;7.00;7.00;;;;;;;;109984;1254;21560;-31
2024/01/01 06:47:53;;;;;;;;;6.00;5.00;;;;;;;;110021;1260;22197;-31
2024/01/01 06:50:20;;;;;;;;;10.00;8.00;;;;;;;;110030;1250;17480;-31
2024/01/01 06:52:48;;;;;;;;;11.00;8.00;;;;;;;;109976;1259;19243;-30
2024/01/01 06:55:15;;;;;;;;;8.00;7.00;;;;;;;;109986;1254;18357;-31
2024/01/01 06:57:42;;;;;;;;;8.00;8.00;;;;;;;;109951;1250;19258;-31
2024/01/01 07:00:10;;;;;;;;;8.00;8.00;;;;;;;;109969;1250;20430;-31
2024/01/01 07:02:37;;;;;;;;;9.00;8.00;;;;;;;;109965;1266;18380;-31
2024/01/01 07:05:04;;;;;;;;;10.00;8.00;;;;;;;;109993;1251;18974;-30
2024/01/01 07:07:32;;;;;;;;;8.00;8.00;;;;;;;;109946;1260;19588;-31
2024/01/01 07:09:59;;;;;;;;;8.00;7.00;;;;;;;;109965;1250;21981;-30
2024/01/01 07:12:27;;;;;;;;;10.00;10.00;;;;;;;;109995;1254;18877;-30
2024/01/01 07:14:54;;;;;;;;;8.00;7.00;;;;;;;;110118;1266;17341;-30
2024/01/01 07:17:21;;;;;;;;;8.00;7.00;;;;;;;;109954;1253;18258;-30
2024/01/01 07:19:49;;;;;;;;;8.00;7.00;;;;;;;;109972;1250;20499;-30
2024/01/01 07:22:17;;;;;;;;;7.00;7.00;;;;;;;;109955;1266;17485;-30
2024/01/01 07:24:44;;;;;;;;;11.00;8.00;;;;;;;;109974;1253;20033;-30
2024/01/01 07:27:11;;;;;;;;;8.00;7.00;;;;;;;;109945;1250;22027;-30
2024/01/01 07:29:39;;;;;;;;;10.00;8.00;;;;;;;;109930;1253;18167;-30
2024/01/01 07:32:06;;;;;;;;;11.00;10.00;;;;;;;;109923;1267;22015;-29
2024/01/01 07:34:33;;;;;;;;;4.00;4.00;;;;;;;;109944;1261;20434;-30
2024/01/01 07:37:00;;;;;;;;;10.00;7.00;;;;;;;;109952;1259;17433;-31
2024/01/01 07:39:29;;;;;;;;;7.50;7.00;;;;;;;;109948;1253;18507;-31
2024/01/01 07:41:57;;;;;;;;;8.00;7.50;;;;;;;;109984;1267;17993;-31
2024/01/01 07:44:24;;;;;;;;;7.50;7.00;;;;;;;;109983;1267;17452;-31
2024/01/01 07:46:52;;;;;;;;;10.00;10.00;;;;;;;;109880;1267;18159;-31
2024/01/01 07:49:19;;;;;;;;;10.00;8.00;;;;;;;;109931;1251;19107;-31
2024/01/01 07:51:46;;;;;;;;;9.00;9.00;;;;;;;;109976;1267;19501;-31
2024/01/01 07:54:14;;;;;;;;;7.00;7.00;;;;;;;;109985;1267;21021;-31
2024/01/01 07:56:44;;;;;;;;;8.00;8.00;;;;;;;;109933;1267;17518;-31
2024/01/01 07:59:11;;;;;;;;;10.00;8.00;;;;;;;;109948;1267;17771;-31
2024/01/01 08:01:38;;;;;;;;;8.00;8.00;;;;;;;;109936;1267;18340;-30
2024/01/01 08:04:06;;;;;;;;;8.00;7.50;;;;;;;;109891;1267;18800;-31
2024/01/01 08:06:33;;;;;;;;;10.00;8.00;;;;;;;;109869;1267;21870;-31
2024/01/01 08:09:00;;;;;;;;;7.00;7.00;;;;;;;;109925;1253;18356;-31
2024/01/01 08:11:28;;;;;;;;;10.00;10.00;;;;;;;;109944;1260;22956;-31
2024/01/01 08:13:55;;;;;;;;;10.00;9.00;;;;;;;;109972;1254;17766;-31
2024/01/01 08:16:22;;;;;;;;;8.00;7.00;;;;;;;;109931;1253;18469;-31
2024/01/01 08:18:52;;;;;;;;;8.00;7.00;;;;;;;;109952;1253;18979;-31
2024/01/01 08:21:20;;;;;;;;;7.00;7.00;;;;;;;;109971;1253;17793;-31
2024/01/01 08:23:47;;;;;;;;;10.00;8.00;;;;;;;;109965;1253;18346;-31
2024/01/01 08:26:15;;;;;;;;;11.00;8.00;;;;;;;;109942;1267;17501;-31
2024/01/01 08:28:42;;;;;;;;;11.00;8.00;;;;;;;;109963;1253;18186;-31
2024/01/01 08:31:09;;;;;;;;;13.50;11.00;;;;;;;;109950;1251;22658;-31
2024/01/01 08:33:37;;;;;;;;;19.00;11.00;;;;;;;;109940;1267;17599;-31
2024/01/01 08:36:04;;;;;;;;;11.00;11.00;;;;;;;;109964;1251;21573;-31
2024/01/01 08:38:31;;;;;;;;;13.00;11.00;;;;;;;;109956;1253;18445;-30
2024/01/01 08:40:59;;;;;;;;;11.00;9.00;;;;;;;;109942;1267;17487;-31
2024/01/01 08:43:26;;;;;;;;;11.00;10.50;;;;;;;;109970;1255;19805;-30
2024/01/01 08:45:54;;;;;;;;;16.67;13.67;;;;;;;;109941;1252;23316;-30
2024/01/01 08:48:21;;;;;;;;;14.00;11.00;;;;;;;;109948;1253;18854;-31
2024/01/01 08:50:48;;;;;;;;;16.50;14.00;;;;;;;;109929;1251;17502;-31
2024/01/01 08:53:16;;;;;;;;;13.00;11.00;;;;;;;;109935;1254;20025;-31
2024/01/01 08:55:43;;;;;;;;;23.00;19.00;;;;;;;;109935;1253;18899;-31
2024/01/01 08:58:10;;;;;;;;;23.50;17.00;;;;;;;;109909;1253;18167;-31
2024/01/01 09:00:38;;;;;;;;;16.00;16.00;;;;;;;;109947;1267;18969;-31
2024/01/01 09:03:05;;;;;;;;;15.00;14.00;;;;;;;;109920;1253;18944;-31
2024/01/01 09:05:32;;;;;;;;;19.00;13.00;;;;;;;;109943;1267;18080;-31
2024/01/01 09:08:00;;;;;;;;;13.00;13.00;;;;;;;;109952;1254;18541;-31
2024/01/01 09:10:27;;;;;;;;;16.00;14.00;;;;;;;;109957;1255;20701;-31
2024/01/01 09:12:55;;;;;;;;;17.00;14.00;;;;;;;;109950;1251;23203;-31
2024/01/01 09:15:22;;;;;;;;;14.00;13.00;;;;;;;;109929;1251;18462;-31
2024/01/01 09:17:50;;;;;;;;;13.00;11.00;;;;;;;;109931;1267;18782;-31
2024/01/01 09:20:18;;;;;;;;;16.00;13.00;;;;;;;;109932;1267;17424;-31
2024/01/01 09:22:47;;;;;;;;;11.00;11.00;;;;;;;;109967;1267;19391;-31
2024/01/01 09:25:14;;;;;;;;;10.00;10.00;;;;;;;;109928;1267;17388;-31
2024/01/01 09:27:43;;;;;;;;;11.00;11.00;;;;;;;;109900;1260;20452;-31
2024/01/01 09:30:10;;;;;;;;;8.00;7.00;;;;;;;;109900;1254;18391;-33
2024/01/01 09:32:38;;;;;;;;;11.00;10.00;;;;;;;;109936;1253;20427;-30
2024/01/01 09:35:05;;;;;;;;;10.00;10.00;;;;;;;;109931;1253;17790;-31
2024/01/01 09:37:33;;;;;;;;;10.00;10.00;;;;;;;;109950;1267;18417;-31
2024/01/01 09:40:00;;;;;;;;;11.00;10.00;;;;;;;;109914;1253;18920;-30
2024/01/01 09:42:28;;;;;;;;;10.00;10.00;;;;;;;;109969;1253;18188;-30
2024/01/01 09:44:55;;;;;;;;;8.00;8.00;;;;;;;;109959;1253;18525;-30
2024/01/01 09:47:23;;;;;;;;;10.00;8.00;;;;;;;;109910;1260;22012;-30
2024/01/01 09:49:50;;;;;;;;;13.00;10.00;;;;;;;;109881;1267;17825;-31
2024/01/01 09:52:17;;;;;;;;;;;;;;;;;;109897;1251;18539;-30
2024/01/01 09:54:44;;;;;;;;;10.00;8.00;;;;;;;;109937;1267;19304;-30
2024/01/01 09:57:12;;;;;;;;;8.00;8.00;;;;;;;;109928;1253;18090;-30
2024/01/01 09:59:40;;;;;;;;;8.00;8.00;;;;;;;;109799;1252;18381;-31
2024/01/01 10:02:07;;;;;;;;;8.00;8.00;;;;;;;;109941;1253;18935;-30
2024/01/01 10:04:35;;;;;;;;;6.00;6.00;;;;;;;;109936;1267;17934;-30
2024/01/01 10:07:02;;;;;;;;;19.00;19.00;;;;;;;;109944;1251;17453;-30
2024/01/01 10:09:30;;;;;;;;;16.50;16.50;;;;;;;;109835;1253;21498;-30
2024/01/01 10:11:58;;;;;;;;;13.50;13.00;;;;;;;;109940;1253;18102;-30
2024/01/01 10:14:25;;;;;;;;;11.00;11.00;;;;;;;;109913;1252;21472;-30
2024/01/01 10:16:52;;;;;;;;;17.00;16.00;;;;;;;;109897;1253;19345;-30
2024/01/01 10:19:20;;;;;;;;;14.00;13.00;;;;;;;;109913;1267;21528;-30
2024/01/01 10:21:47;;;;;;;;;13.00;13.00;;;;;;;;109905;1267;19592;-30
2024/01/01 10:24:15;;;;;;;;;13.50;13.00;;;;;;;;109928;1263;18841;-31
2024/01/01 10:26:42;;;;;;;;;13.00;11.00;;;;;;;;110007;1267;17522;-30
2024/01/01 10:29:10;;;;;;;;;11.00;10.00;;;;;;;;109901;1250;23383;-30
2024/01/01 10:31:37;;;;;;;;;14.00;11.00;;;;;;;;109998;1266;17585;-30
2024/01/01 10:34:05;;;;;;;;;11.00;10.00;;;;;;;;109957;1254;19408;-30
2024/01/01 10:36:32;;;;;;;;;10.67;10.67;;;;;;;;109928;1266;18384;-30
2024/01/01 10:38:59;;;;;;;;;14.00;11.00;;;;;;;;109829;1266;17489;-30
2024/01/01 10:41:27;;;;;;;;;11.00;11.00;;;;;;;;109894;1259;19869;-30
2024/01/01 10:43:54;;;;;;;;;13.00;12.00;;;;;;;;109926;1250;22011;-30
2024/01/01 10:46:21;;;;;;;;;13.00;13.00;;;;;;;;109915;1266;18831;-31
2024/01/01 10:48:49;;;;;;;;;10.00;9.00;;;;;;;;109915;1266;17527;-30
2024/01/01 10:51:16;;;;;;;;;9.00;9.00;;;;;;;;109903;1250;18760;-30
2024/01/01 10:53:43;;;;;;;;;8.00;8.00;;;;;;;;109900;1254;18855;-30
2024/01/01 10:56:10;;;;;;;;;11.00;11.00;;;;;;;;109871;1250;21954;-30
2024/01/01 10:58:38;;;;;;;;;10.00;10.00;;;;;;;;109835;1260;17606;-30
2024/01/01 11:01:06;;;;;;;;;10.00;10.00;;;;;;;;109839;1250;21490;-31
2024/01/01 11:03:33;;;;;;;;;8.00;8.00;;;;;;;;109871;1259;19767;-31
2024/01/01 11:06:00;;;;;;;;;;;;;;;;;;109854;1250;22788;-31
2024/01/01 11:08:28;;;;;;;;;9.00;8.00;;;;;;;;109924;1251;19084;-31
2024/01/01 11:10:55;;;;;;;;;11.00;11.00;;;;;;;;109957;1254;17589;-30
2024/01/01 11:13:22;;;;;;;;;13.00;10.00;;;;;;;;109886;1251;18447;-31
2024/01/01 11:15:50;;;;;;;;;11.00;8.00;;;;;;;;109859;1253;20038;-31
2024/01/01 11:18:17;;;;;;;;;10.50;10.00;;;;;;;;109815;1266;18090;-31
2024/01/01 11:20:44;;;;;;;;;11.00;10.00;;;;;;;;109856;1250;19962;-31
2024/01/01 11:23:11;;;;;;;;;8.00;7.50;;;;;;;;109906;1260;20887;-31
2024/01/01 11:25:39;;;;;;;;;10.50;10.00;;;;;;;;109873;1250;18209;-31
2024/01/01 11:28:07;;;;;;;;;8.00;8.00;;;;;;;;109816;1260;18294;-31
2024/01/01 11:30:34;;;;;;;;;11.00;10.00;;;;;;;;109838;1250;21624;-32
2024/01/01 11:33:02;;;;;;;;;10.00;10.00;;;;;;;;109922;1266;17324;-30
2024/01/01 11:35:29;;;;;;;;;8.00;8.00;;;;;;;;109908;1251;18516;-31
2024/01/01 11:37:56;;;;;;;;;13.00;11.00;;;;;;;;109896;1254;21957;-31
2024/01/01 11:40:28;;;;;;;;;10.00;10.00;;;;;;;;109882;1266;17360;-31
2024/01/01 11:42:55;;;;;;;;;8.00;8.00;;;;;;;;109945;1266;17343;-31
2024/01/01 11:45:22;;;;;;;;;7.00;7.00;;;;;;;;109880;1253;18944;-31
2024/01/01 11:47:49;;;;;;;;;10.00;8.00;;;;;;;;109906;1250;22567;-31
2024/01/01 11:50:17;;;;;;;;;10.00;10.00;;;;;;;;109899;1254;18495;-30
2024/01/01 11:52:44;;;;;;;;;8.00;8.00;;;;;;;;109916;1250;21914;-31
2024/01/01 11:55:11;;;;;;;;;13.00;11.00;;;;;;;;109942;1254;20383;-31
2024/01/01 11:57:42;;;;;;;;;24.00;20.00;;;;;;;;109927;1266;17395;-32
2024/01/01 12:01:54;;;;;;;;;20.67;18.00;;;;;21.51;53.01;99795.52;106930;1302;19007;-30
2024/01/01 12:04:21;;;;;;;;;30.33;24.33;;;;;21.55;51.11;99792.50;109534;1253;19753;-30
2024/01/01 12:06:49;;;;;;;;;26.33;21.67;;;;;21.53;50.36;99793.91;109549;1256;20187;-30
2024/01/01 12:09:16;;;;;;;;;22.00;15.00;;;;;21.63;50.40;99789.59;109509;1269;19298;-30
2024/01/01 12:11:43;;;;;;;;;17.00;15.00;;;;;21.64;50.53;99781.83;109578;1263;19911;-31
2024/01/01 12:14:10;;;;;;;;;14.00;13.00;;;;;21.66;50.52;99776.34;109605;1268;20015;-30
2024/01/01 12:16:38;;;;;;;;;20.00;14.00;;;;;21.74;50.47;99771.30;109323;1251;553751;-30
2024/01/01 12:19:05;;;;;;;;;11.67;11.67;;;;;21.71;50.89;99767.98;109626;1253;19798;-30
2024/01/01 12:21:32;;;;;;;;;;;;;;;21.74;51.06;99762.31;109620;1254;20011;-30
2024/01/01 12:24:00;;;;;;;;;15.00;13.00;;;;;21.70;52.01;99756.77;109682;1259;20760;-30
2024/01/01 12:26:27;;;;;;;;;17.00;13.50;;;;;21.72;53.92;99752.85;109666;1253;19844;-29
2024/01/01 12:28:54;;;;;;;;;19.50;16.50;;;;;21.72;55.09;99744.46;109623;1251;22922;-29
2024/01/01 12:31:22;;;;;;;;;17.00;17.00;;;;;21.68;55.18;99745.79;109632;1267;18103;-29
2024/01/01 12:33:49;;;;;;;;;17.00;15.50;;;;;21.75;55.45;99740.00;109615;1251;21061;-29
2024/01/01 12:36:16;;;;;;;;;19.00;19.00;;;;;21.78;55.99;99741.62;109619;1260;21694;-29
2024/01/01 12:38:44;;;;;;;;;17.00;15.00;;;;;21.81;55.70;99743.33;109650;1267;19372;-30
2024/01/01 12:41:15;;;;;;;;;19.00;17.50;;;;;21.74;55.64;99740.12;109678;1253;19818;-30
2024/01/01 12:43:43;;;;;;;;;19.00;17.00;;;;;21.80;55.37;99742.73;109661;1253;19994;-31
2024/01/01 12:46:10;;;;;;;;;24.67;23.33;;;;;21.77;55.70;99739.52;109652;1259;18099;-30
2024/01/01 12:48:37;;;;;;;;;24.50;21.00;;;;;21.79;55.68;99743.84;109709;1267;18494;-30
2024/01/01 12:51:05;;;;;;;;;31.00;28.00;;;;;21.88;55.45;99750.59;109693;1251;23209;-30
2024/01/01 12:53:32;;;;;;;;;33.00;28.00;;;;;21.97;55.57;99756.58;109664;1267;18080;-30
2024/01/01 12:55:59;;;;;;;;;37.00;33.00;;;;;22.04;55.51;99765.30;109661;1267;18789;-31
2024/01/01 12:58:27;;;;;;;;;33.00;29.67;;;;;22.09;56.50;99776.08;109639;1251;20168;-31
2024/01/01 13:00:56;;;;;;;;;28.00;24.50;;;;;22.08;57.01;99783.08;109696;1253;19595;-31
2024/01/01 13:03:24;;;;;;;;;24.00;21.00;;;;;22.06;57.57;99783.38;109927;1251;18394;-29
2024/01/01 13:05:51;;;;;;;;;18.00;18.00;;;;;21.94;58.48;99778.88;110181;1264;18899;-29
2024/01/01 13:08:18;;;;;;;;;20.50;20.00;;;;;21.83;58.90;99772.92;110151;1263;19675;-30
2024/01/01 13:10:46;;;;;;;;;16.33;15.00;;;;;21.75;58.86;99773.96;110206;1250;19839;-30
2024/01/01 13:13:13;;;;;;;;;19.50;17.00;;;;;21.83;57.89;99774.94;110181;1264;18543;-29
2024/01/01 13:15:40;;;;;;;;;17.50;17.00;;;;;21.87;57.78;99771.82;110153;1250;20315;-29
2024/01/01 13:18:08;;;;;;;;;17.50;15.00;;;;;21.94;57.48;99767.66;110153;1264;18579;-30
2024/01/01 13:20:35;;;;;;;;;21.00;18.00;;;;;21.87;58.05;99765.60;110146;1249;22557;-30
2024/01/01 13:23:03;;;;;;;;;15.00;11.00;;;;;21.84;58.42;99767.25;110164;1264;18081;-30
2024/01/01 13:25:30;;;;;;;;;15.00;15.00;;;;;21.80;58.87;99763.89;110147;1264;19750;-29
2024/01/01 13:27:57;;;;;;;;;15.00;14.33;;;;;21.81;58.82;99766.96;110175;1264;18980;-30
2024/01/01 13:30:25;;;;;;;;;17.50;14.00;;;;;21.82;58.78;99763.63;110171;1249;20378;-31
2024/01/01 13:32:52;;;;;;;;;15.67;12.00;;;;;21.83;58.56;99758.27;110190;1249;19857;-31
2024/01/01 13:35:19;;;;;;;;;14.00;12.00;;;;;21.76;58.88;99759.10;110158;1249;23016;-31
2024/01/01 13:37:47;;;;;;;;;20.00;14.00;;;;;21.77;58.59;99760.39;110168;1264;18106;-31
2024/01/01 13:40:15;;;;;;;;;13.00;12.00;;;;;21.80;58.23;99754.34;110164;1248;21894;-30
2024/01/01 13:42:42;;;;;;;;;12.00;11.00;;;;;21.79;58.38;99757.95;110196;1256;19832;-30
2024/01/01 13:45:10;;;;;;;;;10.00;10.00;;;;;21.78;58.09;99759.77;110190;1250;22908;-31